DAL295 OKKK-OMDB
Flight info
| Callsign | DAL295 |
|---|---|
| Flight time | N/A |
| Altitude | 33000 |
| Route | BOXIK DCT LONOS DCT LOPOL DCT GOGRA DCT KOBOK DCT ALMOK DCT VELAK DCT TOMSO DCT NALPO DCT SOKAK DCT KIVUS DCT PUSOT P559 AMBOV Q322 DATOB |
| Aircraft | MD88/M-SDFGIRWY/C |
Departure
| Time | N/A |
|---|---|
| Airport | Kuwait International Airport (OKKK) |
Arrival
| Time | 2026-04-30 15:08 |
|---|---|
| Airport | Dubai International Airport (OMDB) |
| Time | Latitude | Longitude | Altitude | Speed | Heading |
|---|---|---|---|---|---|
| 2026-04-30 14:02 | 28.95621 | 48.58362 | 17237 ft | 435 kts | 126° |
| 2026-04-30 14:03 | 28.94019 | 48.61312 | 17765 ft | 439 kts | 126° |
| 2026-04-30 14:03 | 28.92403 | 48.64284 | 18270 ft | 443 kts | 127° |
| 2026-04-30 14:03 | 28.90770 | 48.67282 | 18719 ft | 447 kts | 127° |
| 2026-04-30 14:03 | 28.89123 | 48.70302 | 19170 ft | 450 kts | 127° |
| 2026-04-30 14:04 | 28.87458 | 48.73347 | 19651 ft | 453 kts | 127° |
| 2026-04-30 14:04 | 28.85787 | 48.76401 | 20097 ft | 456 kts | 127° |
| 2026-04-30 14:04 | 28.84100 | 48.79479 | 20530 ft | 459 kts | 127° |
| 2026-04-30 14:04 | 28.82374 | 48.82554 | 20974 ft | 460 kts | 131° |
| 2026-04-30 14:05 | 28.80242 | 48.85213 | 21353 ft | 450 kts | 149° |
| 2026-04-30 14:05 | 28.77653 | 48.87157 | 21825 ft | 445 kts | 155° |
| 2026-04-30 14:05 | 28.75135 | 48.89273 | 22242 ft | 457 kts | 144° |
| 2026-04-30 14:05 | 28.72920 | 48.91933 | 22632 ft | 468 kts | 135° |
| 2026-04-30 14:06 | 28.70921 | 48.94884 | 23044 ft | 474 kts | 131° |
| 2026-04-30 14:06 | 28.67175 | 49.01134 | 23778 ft | 481 kts | 129° |
| 2026-04-30 14:07 | 28.63507 | 49.07484 | 24491 ft | 485 kts | 129° |
| 2026-04-30 14:07 | 28.61632 | 49.10679 | 24851 ft | 486 kts | 130° |
| 2026-04-30 14:07 | 28.59731 | 49.13873 | 25163 ft | 488 kts | 130° |
| 2026-04-30 14:08 | 28.55874 | 49.20269 | 25812 ft | 491 kts | 130° |
| 2026-04-30 14:08 | 28.53930 | 49.23477 | 26126 ft | 493 kts | 130° |
| 2026-04-30 14:08 | 28.49836 | 49.29736 | 26666 ft | 489 kts | 142° |
| 2026-04-30 14:09 | 28.47360 | 49.32347 | 27034 ft | 484 kts | 146° |
| 2026-04-30 14:09 | 28.44799 | 49.34820 | 27448 ft | 481 kts | 147° |
| 2026-04-30 14:09 | 28.39692 | 49.39694 | 28337 ft | 477 kts | 147° |
| 2026-04-30 14:10 | 28.37167 | 49.42139 | 28741 ft | 476 kts | 147° |
| 2026-04-30 14:10 | 28.34664 | 49.44596 | 29129 ft | 475 kts | 147° |
| 2026-04-30 14:10 | 28.32210 | 49.47028 | 29475 ft | 475 kts | 147° |
| 2026-04-30 14:10 | 28.29684 | 49.49425 | 29835 ft | 471 kts | 150° |
| 2026-04-30 14:11 | 28.27092 | 49.51676 | 30156 ft | 467 kts | 152° |
| 2026-04-30 14:11 | 28.24483 | 49.53857 | 30425 ft | 466 kts | 152° |
| 2026-04-30 14:11 | 28.21867 | 49.56024 | 30657 ft | 466 kts | 153° |
| 2026-04-30 14:11 | 28.19246 | 49.58201 | 30847 ft | 467 kts | 153° |
| 2026-04-30 14:12 | 28.16634 | 49.60388 | 31073 ft | 467 kts | 152° |
| 2026-04-30 14:12 | 28.14024 | 49.62592 | 31314 ft | 467 kts | 152° |
| 2026-04-30 14:12 | 28.11420 | 49.64804 | 31546 ft | 467 kts | 152° |
| 2026-04-30 14:12 | 28.09700 | 49.66269 | 31716 ft | 466 kts | 152° |
| 2026-04-30 14:13 | 28.06234 | 49.69222 | 31950 ft | 467 kts | 153° |
| 2026-04-30 14:13 | 28.03629 | 49.71434 | 32116 ft | 467 kts | 153° |
| 2026-04-30 14:13 | 28.01029 | 49.73637 | 32304 ft | 467 kts | 153° |
| 2026-04-30 14:13 | 27.98427 | 49.75841 | 32534 ft | 467 kts | 153° |
| 2026-04-30 14:14 | 27.95829 | 49.78039 | 32717 ft | 467 kts | 153° |
| 2026-04-30 14:14 | 27.90638 | 49.82408 | 32814 ft | 469 kts | 154° |
| 2026-04-30 14:15 | 27.85426 | 49.86801 | 32873 ft | 466 kts | 154° |
| 2026-04-30 14:15 | 27.80225 | 49.91149 | 32880 ft | 463 kts | 155° |
| 2026-04-30 14:16 | 27.75026 | 49.95280 | 32884 ft | 462 kts | 156° |
| 2026-04-30 14:16 | 27.69751 | 49.99435 | 32878 ft | 462 kts | 155° |
| 2026-04-30 14:17 | 27.64491 | 50.03614 | 32881 ft | 462 kts | 155° |
| 2026-04-30 14:17 | 27.59245 | 50.07798 | 32882 ft | 462 kts | 155° |
| 2026-04-30 14:18 | 27.53998 | 50.11981 | 32866 ft | 462 kts | 155° |
| 2026-04-30 14:18 | 27.46167 | 50.18206 | 32881 ft | 461 kts | 155° |
| 2026-04-30 14:19 | 27.38300 | 50.24424 | 32880 ft | 460 kts | 155° |
| 2026-04-30 14:20 | 27.33057 | 50.28567 | 32881 ft | 460 kts | 155° |
| 2026-04-30 14:20 | 27.25195 | 50.34782 | 32877 ft | 460 kts | 155° |
| 2026-04-30 14:21 | 27.19954 | 50.38918 | 32877 ft | 460 kts | 156° |
| 2026-04-30 14:22 | 27.12091 | 50.45115 | 32876 ft | 460 kts | 156° |
| 2026-04-30 14:22 | 27.04263 | 50.51271 | 32874 ft | 460 kts | 156° |
| 2026-04-30 14:23 | 26.95082 | 50.61483 | 32874 ft | 499 kts | 125° |
| 2026-04-30 14:24 | 26.90532 | 50.72059 | 32860 ft | 502 kts | 124° |
| 2026-04-30 14:25 | 26.84205 | 50.85933 | 32848 ft | 497 kts | 126° |
| 2026-04-30 14:26 | 26.79440 | 50.96171 | 32855 ft | 496 kts | 126° |
| 2026-04-30 14:27 | 26.74667 | 51.06454 | 32849 ft | 497 kts | 126° |
| 2026-04-30 14:27 | 26.71469 | 51.13311 | 32835 ft | 497 kts | 126° |
| 2026-04-30 14:28 | 26.66680 | 51.23589 | 32839 ft | 496 kts | 125° |
| 2026-04-30 14:28 | 26.63504 | 51.30416 | 32848 ft | 494 kts | 126° |
| 2026-04-30 14:29 | 26.57668 | 51.42906 | 32816 ft | 496 kts | 126° |
| 2026-04-30 14:31 | 26.49151 | 51.61041 | 32844 ft | 494 kts | 125° |
| 2026-04-30 14:31 | 26.44703 | 51.71493 | 32837 ft | 501 kts | 120° |
| 2026-04-30 14:32 | 26.40676 | 51.82237 | 32827 ft | 499 kts | 120° |
| 2026-04-30 14:33 | 26.38396 | 51.88193 | 32829 ft | 498 kts | 120° |
| 2026-04-30 14:33 | 26.34278 | 51.98770 | 32832 ft | 498 kts | 120° |
| 2026-04-30 14:34 | 26.31518 | 52.05862 | 32822 ft | 499 kts | 120° |
| 2026-04-30 14:34 | 26.28748 | 52.12948 | 32811 ft | 499 kts | 120° |
| 2026-04-30 14:35 | 26.24591 | 52.23573 | 32829 ft | 499 kts | 120° |
| 2026-04-30 14:36 | 26.21898 | 52.30691 | 32818 ft | 502 kts | 112° |
| 2026-04-30 14:36 | 26.20468 | 52.38371 | 32818 ft | 509 kts | 103° |
| 2026-04-30 14:37 | 26.19399 | 52.46178 | 32822 ft | 510 kts | 104° |
| 2026-04-30 14:37 | 26.18256 | 52.53914 | 32816 ft | 509 kts | 104° |
| 2026-04-30 14:38 | 26.17029 | 52.61667 | 32818 ft | 508 kts | 105° |
| 2026-04-30 14:38 | 26.15791 | 52.69401 | 32821 ft | 507 kts | 105° |
| 2026-04-30 14:39 | 26.14568 | 52.77129 | 32817 ft | 507 kts | 105° |
| 2026-04-30 14:39 | 26.13320 | 52.84858 | 32822 ft | 507 kts | 105° |
| 2026-04-30 14:40 | 26.11460 | 52.96445 | 32814 ft | 507 kts | 105° |
| 2026-04-30 14:40 | 26.10153 | 53.04141 | 32802 ft | 502 kts | 112° |
| 2026-04-30 14:41 | 26.07677 | 53.11306 | 32812 ft | 494 kts | 120° |
| 2026-04-30 14:41 | 26.04958 | 53.18270 | 32817 ft | 494 kts | 119° |
| 2026-04-30 14:42 | 26.02287 | 53.25321 | 32813 ft | 495 kts | 118° |
| 2026-04-30 14:42 | 25.99681 | 53.32416 | 32817 ft | 496 kts | 118° |
| 2026-04-30 14:43 | 25.97086 | 53.39521 | 32815 ft | 496 kts | 118° |
| 2026-04-30 14:43 | 25.94476 | 53.46621 | 32812 ft | 496 kts | 118° |
| 2026-04-30 14:44 | 25.91890 | 53.53745 | 32814 ft | 498 kts | 117° |
| 2026-04-30 14:44 | 25.89429 | 53.60939 | 32813 ft | 499 kts | 116° |
| 2026-04-30 14:45 | 25.86984 | 53.68144 | 32810 ft | 498 kts | 116° |
| 2026-04-30 14:45 | 25.84518 | 53.75313 | 32811 ft | 496 kts | 117° |
| 2026-04-30 14:46 | 25.83267 | 53.78905 | 32430 ft | 503 kts | 116° |
| 2026-04-30 14:46 | 25.81991 | 53.82537 | 31860 ft | 505 kts | 116° |
| 2026-04-30 14:46 | 25.80723 | 53.86168 | 31171 ft | 504 kts | 116° |
| 2026-04-30 14:46 | 25.79462 | 53.89796 | 30389 ft | 504 kts | 116° |
| 2026-04-30 14:47 | 25.78203 | 53.93424 | 29515 ft | 505 kts | 116° |
| 2026-04-30 14:47 | 25.76939 | 53.97057 | 28611 ft | 503 kts | 116° |
| 2026-04-30 14:47 | 25.75682 | 54.00670 | 27782 ft | 501 kts | 115° |
| 2026-04-30 14:47 | 25.74487 | 54.04284 | 27007 ft | 497 kts | 114° |
| 2026-04-30 14:48 | 25.73385 | 54.07854 | 26252 ft | 494 kts | 112° |
| 2026-04-30 14:48 | 25.72309 | 54.11451 | 25526 ft | 490 kts | 112° |
| 2026-04-30 14:48 | 25.71243 | 54.15023 | 24782 ft | 486 kts | 112° |
| 2026-04-30 14:48 | 25.70177 | 54.18563 | 24056 ft | 482 kts | 111° |
| 2026-04-30 14:49 | 25.69108 | 54.22071 | 23301 ft | 478 kts | 112° |
| 2026-04-30 14:49 | 25.68041 | 54.25547 | 22479 ft | 474 kts | 111° |
| 2026-04-30 14:49 | 25.66978 | 54.28987 | 21710 ft | 469 kts | 111° |
| 2026-04-30 14:49 | 25.65927 | 54.32385 | 20965 ft | 464 kts | 111° |
| 2026-04-30 14:50 | 25.63850 | 54.39079 | 19523 ft | 455 kts | 111° |
| 2026-04-30 14:50 | 25.62820 | 54.42380 | 18813 ft | 451 kts | 111° |
| 2026-04-30 14:51 | 25.60788 | 54.48899 | 17341 ft | 444 kts | 111° |
| 2026-04-30 14:51 | 25.59789 | 54.52115 | 16608 ft | 439 kts | 111° |
| 2026-04-30 14:51 | 25.57825 | 54.58439 | 15210 ft | 429 kts | 111° |
| 2026-04-30 14:52 | 25.56852 | 54.61538 | 14598 ft | 422 kts | 111° |
| 2026-04-30 14:52 | 25.54916 | 54.67570 | 13403 ft | 409 kts | 112° |
| 2026-04-30 14:52 | 25.53964 | 54.70510 | 12812 ft | 402 kts | 112° |
| 2026-04-30 14:53 | 25.52138 | 54.76168 | 11965 ft | 380 kts | 112° |
| 2026-04-30 14:53 | 25.51261 | 54.78863 | 11749 ft | 364 kts | 113° |
| 2026-04-30 14:54 | 25.49405 | 54.83793 | 11499 ft | 331 kts | 116° |
| 2026-04-30 14:54 | 25.47626 | 54.88249 | 11302 ft | 303 kts | 117° |
| 2026-04-30 14:55 | 25.45974 | 54.92388 | 11093 ft | 293 kts | 117° |
| 2026-04-30 14:55 | 25.45162 | 54.94431 | 10937 ft | 296 kts | 117° |
| 2026-04-30 14:55 | 25.43315 | 54.98514 | 10708 ft | 297 kts | 123° |
| 2026-04-30 14:56 | 25.41242 | 55.02456 | 10553 ft | 296 kts | 124° |
| 2026-04-30 14:56 | 25.39158 | 55.06373 | 10396 ft | 295 kts | 123° |
| 2026-04-30 14:57 | 25.38123 | 55.08332 | 10332 ft | 296 kts | 123° |
| 2026-04-30 14:57 | 25.36051 | 55.12223 | 10174 ft | 292 kts | 129° |
| 2026-04-30 14:58 | 25.33454 | 55.15636 | 10042 ft | 290 kts | 136° |
| 2026-04-30 14:58 | 25.32099 | 55.17284 | 9966 ft | 290 kts | 136° |
| 2026-04-30 14:58 | 25.29377 | 55.20560 | 9832 ft | 288 kts | 136° |
| 2026-04-30 14:59 | 25.26675 | 55.23827 | 9696 ft | 287 kts | 136° |
| 2026-04-30 15:00 | 25.22659 | 55.28733 | 9290 ft | 288 kts | 136° |
| 2026-04-30 15:00 | 25.19987 | 55.32003 | 8617 ft | 288 kts | 135° |
| 2026-04-30 15:01 | 25.17498 | 55.35467 | 7770 ft | 291 kts | 124° |
| 2026-04-30 15:01 | 25.16772 | 55.36750 | 7446 ft | 293 kts | 123° |
| 2026-04-30 15:01 | 25.14326 | 55.41226 | 6637 ft | 285 kts | 122° |
| 2026-04-30 15:02 | 25.13333 | 55.43064 | 6563 ft | 273 kts | 122° |
| 2026-04-30 15:02 | 25.12353 | 55.44869 | 6054 ft | 279 kts | 122° |
| 2026-04-30 15:03 | 25.09524 | 55.50786 | 4118 ft | 302 kts | 95° |
| 2026-04-30 15:03 | 25.10732 | 55.55035 | 2881 ft | 296 kts | 42° |
| 2026-04-30 15:04 | 25.14258 | 55.56469 | 1640 ft | 268 kts | 348° |
| 2026-04-30 15:04 | 25.16830 | 55.52490 | 1033 ft | 226 kts | 272° |
| 2026-04-30 15:05 | 25.18586 | 55.47771 | 1359 ft | 227 kts | 308° |
| 2026-04-30 15:06 | 25.20467 | 55.45018 | 969 ft | 206 kts | 300° |
| 2026-04-30 15:06 | 25.21870 | 55.42573 | 601 ft | 193 kts | 300° |
| 2026-04-30 15:07 | 25.23301 | 55.40013 | 246 ft | 173 kts | 300° |
| 2026-04-30 15:07 | 25.24316 | 55.38167 | 23 ft | 67 kts | 300° |
| 2026-04-30 15:08 | 25.24647 | 55.37574 | 23 ft | 35 kts | 302° |
| 2026-04-30 15:08 | 25.24788 | 55.37017 | 23 ft | 17 kts | 273° |
| 2026-04-30 15:09 | 25.24859 | 55.36784 | 23 ft | 16 kts | 283° |
| 2026-04-30 15:09 | 25.24947 | 55.36559 | 23 ft | 16 kts | 301° |
| 2026-04-30 15:10 | 25.25068 | 55.36340 | 23 ft | 17 kts | 302° |
| 2026-04-30 15:11 | 25.25328 | 55.35871 | 25 ft | 19 kts | 301° |
| 2026-04-30 15:11 | 25.25466 | 55.35622 | 23 ft | 19 kts | 301° |
| 2026-04-30 15:12 | 25.25681 | 55.35234 | 24 ft | 20 kts | 301° |
| 2026-04-30 15:13 | 25.25824 | 55.34970 | 23 ft | 20 kts | 301° |
| 2026-04-30 15:14 | 25.26101 | 55.34471 | 23 ft | 8 kts | 302° |
| 2026-04-30 15:14 | 25.26199 | 55.34492 | 23 ft | 2 kts | 28° |